Flight Track Log - Related Links

Times and Time Zones

All times are in EDT time to prevent confusion due to time zone crossing. See the RPA3446 flight status page for this flight to view local times or setup timezone preferences in your user account.

Time Position Orientation Groundspeed Altitude Reporting Facility
EDT Latitude Longitude Course Direction KTS MPH feet Rate Location/Type
Wed 10:57:51 PM 39.8667 -75.2833 38° Northeast 166 191 600  Level Philadelphia TRACON
Wed 10:59:15 PM 39.8500 -75.3667 255° West 221 254 3,700 2,524 Climbing Philadelphia TRACON
Wed 11:00:16 PM 39.8333 -75.4500 255° West 266 306 6,700 2,926 Climbing Philadelphia TRACON
Wed 11:01:00 PM 39.7914 -74.7403 105° East  Level FlightAware Approximate
Wed 11:01:16 PM 39.8667 -75.5167 303° West 297 342 9,600  Level Philadelphia TRACON
Wed 11:02:00 PM 39.8362 -74.6472 37° Northeast  Level FlightAware Approximate
Wed 11:02:10 PM 39.9500 -75.5333 351° North 324 373 11,500  Level Philadelphia TRACON
Wed 11:03:00 PM 39.9144 -74.5689 38° Northeast  Level FlightAware Approximate
Wed 11:03:04 PM 40.0333 -75.5333 360° North 348 400 13,000  Level Philadelphia TRACON
Wed 11:04:05 PM 40.1314 -75.5517 352° North 363 418 13,000 550 Level New York Center
Wed 11:05:04 PM 40.2203 -75.5689 352° North 363 418 14,100 1,916 Climbing New York Center
Wed 11:06:04 PM 40.2911 -75.6664 314° West 331 381 16,800 1,438 Climbing New York Center
Wed 11:07:05 PM 40.3561 -75.7608 312° West 337 388 17,000 98 Climbing New York Center
Wed 11:08:06 PM 40.4186 -75.8553 311° West 349 402 17,000  Level New York Center
Wed 11:09:05 PM 40.4517 -75.9614 292° West 349 402 17,000 450 Level New York Center
Wed 11:10:06 PM 40.4714 -76.0803 282° West 343 395 17,900 1,500 Climbing New York Center
Wed 11:11:05 PM 40.4908 -76.2044 282° West 343 395 20,000 2,067 Climbing New York Center
Wed 11:12:05 PM 40.5117 -76.3344 282° West 348 400 22,000 1,835 Climbing New York Center
Wed 11:13:06 PM 40.5306 -76.4672 281° West 366 421 23,700 1,008 Climbing New York Center
Wed 11:14:04 PM 40.5853 -76.5808 302° West 366 421 24,000 250 Climbing New York Center
Wed 11:15:06 PM 40.6933 -76.6311 341° North 361 415 24,200 500 Climbing New York Center
Wed 11:16:04 PM 40.8047 -76.6544 351° North 376 433 25,000 400 Climbing New York Center
Wed 11:17:06 PM 40.9219 -76.6836 349° North 400 460 25,000  Level New York Center
Wed 11:18:06 PM 41.0478 -76.7139 350° North 414 476 25,000  Level New York Center
Wed 11:19:05 PM 41.1672 -76.7383 351° North 420 483 25,000  Level New York Center
Wed 11:20:06 PM 41.2831 -76.7567 353° North 425 489 25,000  Level New York Center
Wed 11:21:04 PM 41.3914 -76.6750 29° Northeast 408 470 25,000  Level New York Center
Wed 11:22:04 PM 41.4625 -76.5403 55° Northeast 403 464 25,000  Level New York Center
Wed 11:23:07 PM 41.5317 -76.3992 57° Northeast 420 483 25,000  Level New York Center
Wed 11:24:05 PM 41.6028 -76.2581 56° Northeast 438 504 25,000  Level New York Center
Wed 11:25:05 PM 41.6697 -76.1192 57° Northeast 443 510 25,000 555 Level New York Center
Wed 11:26:04 PM 41.7383 -75.9775 57° Northeast 443 510 26,100 1,278 Climbing New York Center
Wed 11:27:54 PM 41.8667 -75.7189 56° Northeast 458 527 28,600 1,353 Climbing Boston Center
Wed 11:28:57 PM 41.9386 -75.5733 56° Northeast 466 536 30,000 1,306 Climbing Boston Center
Wed 11:29:58 PM 42.0103 -75.4264 57° Northeast 468 539 31,300 1,300 Climbing Boston Center
Wed 11:30:57 PM 42.0811 -75.2806 57° Northeast 468 539 32,600 850 Climbing Boston Center
Wed 11:31:58 PM 42.1450 -75.1450 58° Northeast 468 539 33,000 195 Climbing Boston Center
Wed 11:33:00 PM 42.2139 -74.9969 58° Northeast 468 539 33,000 250 Level Boston Center
Wed 11:33:58 PM 42.2831 -74.8500 57° Northeast 467 537 33,500 857 Climbing Boston Center
Wed 11:34:59 PM 42.3500 -74.7017 59° Northeast 465 535 34,700 732 Climbing Boston Center
Wed 11:36:01 PM 42.4183 -74.5547 58° Northeast 460 529 35,000 145 Climbing Boston Center
Wed 11:37:03 PM 42.4986 -74.3786 58° Northeast 461 531 35,000  Level Boston Center
Wed 11:38:03 PM 42.5661 -74.2306 58° Northeast 459 528 35,000  Level Boston Center
Wed 11:39:05 PM 42.6319 -74.0836 59° Northeast 458 527 35,000  Level Boston Center
Wed 11:40:05 PM 42.7000 -73.9356 58° Northeast 459 528 35,000  Level Boston Center
Wed 11:41:06 PM 42.7678 -73.7858 58° Northeast 460 529 35,000  Level Boston Center
Wed 11:42:05 PM 42.8339 -73.6342 59° Northeast 461 531 35,000  Level Boston Center
Wed 11:43:08 PM 42.9022 -73.4842 58° Northeast 462 532 35,000  Level Boston Center
Wed 11:44:08 PM 42.9689 -73.3328 59° Northeast 462 532 35,000  Level Boston Center
Wed 11:45:08 PM 43.0350 -73.1794 59° Northeast 463 533 35,000 -246 Level Boston Center
Wed 11:46:10 PM 43.1011 -73.0281 59° Northeast 463 533 34,500 -878 Descending Boston Center
Wed 11:47:11 PM 43.1686 -72.8758 59° Northeast 463 533 33,200 -750 Descending Boston Center
Wed 11:48:10 PM 43.2344 -72.7211 60° Northeast 464 534 33,000 -99 Descending Boston Center
Wed 11:49:12 PM 43.3011 -72.5664 59° Northeast 468 539 33,000  Level Boston Center
Wed 11:50:13 PM 43.3672 -72.4122 59° Northeast 468 539 33,000  Level Boston Center
Wed 11:51:14 PM 43.4339 -72.2564 59° Northeast 469 540 33,000  Level Boston Center
Wed 11:52:14 PM 43.4992 -72.1014 60° Northeast 469 540 33,000  Level Boston Center
Wed 11:53:15 PM 43.5653 -71.9458 60° Northeast 470 541 33,000  Level Boston Center
Wed 11:54:16 PM 43.6300 -71.7911 60° Northeast 469 540 33,000 -246 Level Boston Center
Wed 11:55:17 PM 43.6933 -71.6386 60° Northeast 462 532 32,500 -1,091 Descending Boston Center
Wed 11:56:17 PM 43.7644 -71.4681 60° Northeast 463 533 30,800 -1,686 Descending Boston Center
Wed 11:57:18 PM 43.8289 -71.3106 60° Northeast 466 536 29,100 -1,672 Descending Boston Center
Wed 11:58:19 PM 43.8925 -71.1531 61° Northeast 466 536 27,400 -1,636 Descending Boston Center
Wed 11:59:19 PM 43.9561 -71.0014 60° Northeast 459 528 25,800 -1,587 Descending Boston Center
Thu 12:00:20 AM 44.0167 -70.8514 61° Northeast 448 516 24,200 -1,525 Descending Boston Center
Thu 12:01:21 AM 44.0761 -70.7061 60° Northeast 435 501 22,700 -1,475 Descending Boston Center
Thu 12:02:22 AM 44.1333 -70.5628 61° Northeast 428 493 21,200 -1,500 Descending Boston Center
Thu 12:03:21 AM 44.1894 -70.4222 61° Northeast 418 481 19,700 -1,550 Descending Boston Center
Thu 12:04:22 AM 44.2522 -70.2647 61° Northeast 404 465 18,100 -1,500 Descending Boston Center
Thu 12:05:21 AM 44.3044 -70.1319 61° Northeast 392 451 16,700 -1,426 Descending Boston Center
Thu 12:06:24 AM 44.3556 -70.0011 61° Northeast 386 444 15,200 -1,512 Descending Boston Center
Thu 12:07:24 AM 44.4047 -69.8747 61° Northeast 374 430 13,600 -1,488 Descending Boston Center
Thu 12:08:25 AM 44.4481 -69.7678 60° Northeast 372 428 12,200 -1,230 Descending Boston Center
Thu 12:09:26 AM 44.4953 -69.6467 61° Northeast 360 414 11,100 -541 Descending Boston Center
Thu 12:10:27 AM 44.5408 -69.5258 62° Northeast 353 406 11,100 -541 Level Boston Center
Thu 12:11:28 AM 44.6003 -69.3956 57° Northeast 331 381 10,000 -1,537 Descending Boston Center
Thu 12:12:28 AM 44.6606 -69.3019 48° Northeast 327 376 8,000 -2,000 Descending Boston Center
Thu 12:13:28 AM 44.7181 -69.2089 49° Northeast 321 369 6,000 -2,033 Descending Boston Center
Thu 12:14:29 AM 44.7747 -69.1183 49° Northeast 316 364 3,900 -1,488 Descending Boston Center
Thu 12:15:29 AM 44.8278 -69.0325 49° Northeast 298 343 3,000 -605 Descending Boston Center
Thu 12:16:28 AM 44.8647 -68.9528 57° Northeast 257 296 2,700 -787 Descending Boston Center
Thu 12:17:31 AM 44.8483 -68.8856 109° East 200 230 1,400 -1,113 Descending Boston Center
Thu 12:18:32 AM 44.8208 -68.8478 136° Southeast 162 186 400 -590 Descending Boston Center
Thu 12:19:33 AM 44.7944 -68.8131 137° Southeast 156 180 200 -197 Descending Boston Center

Login

Don't have an account? Register now (free) for customized features, flight alerts, and more!